createdAt,value
2022-08-28T00:00:41.765Z,17.97
2022-08-28T00:03:10.636Z,17.27
2022-08-28T00:05:39.545Z,21.77
2022-08-28T00:08:10.165Z,16.37
2022-08-28T00:10:40.045Z,17.53
2022-08-28T00:13:08.770Z,18.83
2022-08-28T00:15:40.404Z,25.50
2022-08-28T00:18:09.390Z,18.87
2022-08-28T00:20:38.550Z,17.03
2022-08-28T00:23:07.353Z,17.27
2022-08-28T00:25:35.969Z,21.60
2022-08-28T00:28:09.008Z,19.83
2022-08-28T00:30:40.890Z,17.37
2022-08-28T00:33:13.105Z,18.17
2022-08-28T00:35:42.374Z,20.13
2022-08-28T00:38:11.754Z,16.53
2022-08-28T00:40:42.670Z,16.50
2022-08-28T00:43:15.070Z,18.33
2022-08-28T00:45:44.421Z,17.33
2022-08-28T00:48:12.548Z,16.37
2022-08-28T00:51:00.687Z,17.53
2022-08-28T00:53:32.827Z,17.70
2022-08-28T00:56:04.226Z,16.00
2022-08-28T00:58:37.763Z,16.27
2022-08-28T01:01:07.462Z,17.90
2022-08-28T01:03:35.469Z,15.47
2022-08-28T01:06:03.950Z,15.57
2022-08-28T01:08:32.062Z,24.10
2022-08-28T01:11:01.431Z,14.63
2022-08-28T01:13:30.505Z,16.33
2022-08-28T01:15:59.155Z,21.03
2022-08-28T01:18:30.482Z,15.77
2022-08-28T01:21:03.153Z,18.33
2022-08-28T01:23:45.755Z,19.03
2022-08-28T01:26:14.416Z,19.23
2022-08-28T01:28:42.389Z,14.77
2022-08-28T01:31:11.091Z,15.83
2022-08-28T01:33:42.505Z,23.23
2022-08-28T01:36:12.371Z,18.33
2022-08-28T01:38:43.871Z,16.57
2022-08-28T01:41:13.929Z,18.53
2022-08-28T01:43:43.341Z,15.33
2022-08-28T01:46:13.023Z,18.40
2022-08-28T01:48:44.135Z,16.33
2022-08-28T01:51:13.520Z,14.87
2022-08-28T01:53:45.184Z,15.77
2022-08-28T01:56:16.878Z,14.17
2022-08-28T01:58:45.438Z,13.77
2022-08-28T02:01:14.978Z,13.90
2022-08-28T02:03:43.873Z,14.17
2022-08-28T02:06:12.329Z,14.13
2022-08-28T02:08:41.938Z,21.93
2022-08-28T02:11:10.129Z,18.03
2022-08-28T02:13:39.177Z,16.10
2022-08-28T02:16:08.943Z,16.50
2022-08-28T02:18:37.895Z,16.03
2022-08-28T02:21:06.360Z,15.30
2022-08-28T02:23:34.457Z,15.43
2022-08-28T02:26:03.812Z,16.07
2022-08-28T02:28:31.837Z,16.53
2022-08-28T02:30:59.861Z,22.93
2022-08-28T02:33:27.989Z,19.87
2022-08-28T02:35:56.973Z,18.17
2022-08-28T02:38:25.030Z,16.57
2022-08-28T02:40:53.133Z,17.60
2022-08-28T02:43:22.514Z,19.07
2022-08-28T02:45:50.661Z,16.77
2022-08-28T02:48:18.968Z,17.40
2022-08-28T02:50:47.297Z,16.13
2022-08-28T02:53:15.534Z,15.87
2022-08-28T02:55:43.537Z,16.50
2022-08-28T02:58:11.680Z,15.63
2022-08-28T03:00:41.448Z,24.60
2022-08-28T03:03:09.386Z,15.87
2022-08-28T03:05:37.385Z,15.20
2022-08-28T03:08:06.088Z,16.20
2022-08-28T03:10:34.362Z,15.83
2022-08-28T03:13:02.362Z,15.97
2022-08-28T03:15:30.377Z,15.70
2022-08-28T03:17:59.750Z,15.70
2022-08-28T03:20:28.261Z,16.47
2022-08-28T03:23:13.608Z,18.73
2022-08-28T03:25:41.638Z,21.37
2022-08-28T03:28:09.680Z,14.87
2022-08-28T03:30:37.786Z,15.57
2022-08-28T03:33:07.198Z,20.70
2022-08-28T03:35:35.309Z,26.67
2022-08-28T03:38:03.317Z,43.03
2022-08-28T03:40:32.278Z,26.20
2022-08-28T03:43:00.310Z,24.10
2022-08-28T03:45:28.299Z,18.47
2022-08-28T03:47:56.501Z,16.60
2022-08-28T03:50:27.230Z,17.50
2022-08-28T03:52:57.441Z,16.60
2022-08-28T03:55:25.752Z,17.13
2022-08-28T03:57:54.013Z,18.83
2022-08-28T04:00:22.075Z,16.20
2022-08-28T04:02:50.198Z,15.20
2022-08-28T04:05:18.369Z,15.27
2022-08-28T04:07:48.321Z,14.97
2022-08-28T04:10:16.318Z,15.07
2022-08-28T04:12:44.801Z,14.67
2022-08-28T04:15:15.137Z,16.10
2022-08-28T04:17:43.385Z,15.63
2022-08-28T04:20:12.379Z,14.47
2022-08-28T04:22:40.425Z,27.23
2022-08-28T04:25:10.663Z,16.70
2022-08-28T04:27:38.690Z,16.80
2022-08-28T04:30:09.754Z,14.87
2022-08-28T04:32:39.259Z,14.93
2022-08-28T04:35:08.993Z,15.07
2022-08-28T04:37:37.295Z,16.13
2022-08-28T04:40:05.805Z,19.70
2022-08-28T04:42:35.330Z,16.57
2022-08-28T04:45:03.323Z,16.60
2022-08-28T04:47:31.755Z,14.43
2022-08-28T04:49:59.753Z,21.27
2022-08-28T04:52:27.837Z,14.33
2022-08-28T04:54:55.857Z,14.60
2022-08-28T04:57:23.814Z,14.50
2022-08-28T04:59:53.223Z,15.53
2022-08-28T05:02:21.382Z,15.83
2022-08-28T05:04:49.365Z,17.20
2022-08-28T05:07:17.309Z,19.30
2022-08-28T05:09:45.381Z,15.43
2022-08-28T05:12:17.247Z,18.80
2022-08-28T05:14:45.870Z,23.03
2022-08-28T05:17:15.271Z,20.73
2022-08-28T05:19:43.801Z,23.20
2022-08-28T05:22:11.862Z,29.67
2022-08-28T05:24:40.510Z,21.17
2022-08-28T05:27:08.657Z,26.67
2022-08-28T05:29:36.635Z,22.90
2022-08-28T05:32:05.566Z,23.27
2022-08-28T05:34:35.213Z,28.33
2022-08-28T05:37:03.248Z,25.73
2022-08-28T05:39:31.221Z,23.30
2022-08-28T05:41:59.229Z,23.80
2022-08-28T05:44:27.218Z,26.33
2022-08-28T05:46:55.940Z,23.53
2022-08-28T05:49:24.054Z,38.27
2022-08-28T05:51:53.422Z,29.00
2022-08-28T05:54:21.397Z,32.43
2022-08-28T05:56:49.373Z,26.43
2022-08-28T05:59:17.900Z,23.43
2022-08-28T06:01:47.804Z,22.50
2022-08-28T06:04:17.808Z,19.87
2022-08-28T06:06:46.879Z,17.50
2022-08-28T06:09:19.197Z,15.67
2022-08-28T06:11:48.016Z,13.93
2022-08-28T06:14:20.679Z,15.40
2022-08-28T06:16:50.897Z,13.53
2022-08-28T06:19:19.471Z,13.93
2022-08-28T06:21:48.314Z,11.97
2022-08-28T06:24:17.701Z,11.30
2022-08-28T06:26:46.409Z,11.67
2022-08-28T06:29:18.365Z,12.00
2022-08-28T06:31:50.367Z,12.17
2022-08-28T06:34:18.342Z,11.20
2022-08-28T06:36:49.494Z,13.30
2022-08-28T06:39:21.307Z,12.37
2022-08-28T06:41:49.383Z,10.00
2022-08-28T06:44:20.550Z,9.87
2022-08-28T06:46:49.252Z,9.30
2022-08-28T06:49:17.383Z,7.50
2022-08-28T06:51:45.624Z,6.70
2022-08-28T06:54:18.437Z,8.57
2022-08-28T06:56:51.699Z,6.73
2022-08-28T06:59:19.746Z,8.57
2022-08-28T07:01:47.802Z,7.13
2022-08-28T07:04:15.896Z,6.83
2022-08-28T07:06:47.126Z,7.97
2022-08-28T07:09:16.383Z,6.47
2022-08-28T07:11:46.627Z,9.43
2022-08-28T07:14:16.089Z,7.77
2022-08-28T07:16:44.564Z,7.97
2022-08-28T07:19:13.569Z,10.10
2022-08-28T07:21:42.948Z,7.27
2022-08-28T07:24:12.092Z,8.93
2022-08-28T07:26:41.545Z,10.90
2022-08-28T07:29:11.550Z,9.17
2022-08-28T07:31:42.549Z,8.43
2022-08-28T07:34:11.290Z,7.90
2022-08-28T07:36:39.549Z,9.63
2022-08-28T07:39:09.173Z,8.90
2022-08-28T07:41:39.321Z,8.20
2022-08-28T07:44:25.852Z,8.33
2022-08-28T07:46:56.450Z,9.30
2022-08-28T07:49:24.951Z,7.83
2022-08-28T07:51:54.226Z,11.20
2022-08-28T07:54:22.814Z,8.70
2022-08-28T07:56:51.015Z,12.70
2022-08-28T07:59:20.271Z,8.43
2022-08-28T08:01:52.116Z,7.80
2022-08-28T08:04:23.415Z,6.93
2022-08-28T08:06:57.624Z,6.97
2022-08-28T08:09:26.067Z,8.20
2022-08-28T08:11:56.285Z,8.33
2022-08-28T08:14:24.959Z,7.33
2022-08-28T08:16:53.495Z,6.97
2022-08-28T08:19:22.911Z,6.87
2022-08-28T08:21:54.974Z,7.43
2022-08-28T08:24:26.433Z,7.83
2022-08-28T08:26:59.802Z,8.23
2022-08-28T08:29:29.930Z,6.53
2022-08-28T08:32:04.922Z,7.87
2022-08-28T08:34:35.542Z,6.37
2022-08-28T08:37:03.496Z,6.73
2022-08-28T08:39:31.857Z,6.33
2022-08-28T08:42:01.973Z,6.70
2022-08-28T08:44:33.586Z,7.00
2022-08-28T08:47:14.207Z,6.30
2022-08-28T08:49:50.312Z,7.93
2022-08-28T08:52:36.490Z,8.70
2022-08-28T08:55:15.027Z,9.20
2022-08-28T08:57:44.334Z,7.97
2022-08-28T09:00:16.204Z,9.70
2022-08-28T09:02:48.120Z,7.43
2022-08-28T09:05:20.720Z,8.90
2022-08-28T09:07:53.276Z,9.60
2022-08-28T09:10:21.518Z,10.77
2022-08-28T09:12:54.412Z,11.13
2022-08-28T09:15:29.507Z,11.80
2022-08-28T09:18:04.225Z,11.63
2022-08-28T09:20:33.684Z,13.90
2022-08-28T09:23:02.067Z,12.73
2022-08-28T09:25:54.129Z,10.57
2022-08-28T09:28:25.253Z,9.93
2022-08-28T09:31:00.800Z,9.87
2022-08-28T09:33:37.303Z,12.17
2022-08-28T09:36:33.867Z,13.17
2022-08-28T09:39:14.230Z,11.23
2022-08-28T09:42:19.112Z,11.60
2022-08-28T09:44:52.986Z,13.40
2022-08-28T09:47:46.721Z,13.70
2022-08-28T09:50:33.958Z,14.33
2022-08-28T09:53:19.281Z,13.07
2022-08-28T09:56:00.579Z,11.57
2022-08-28T09:58:34.555Z,11.93
2022-08-28T10:01:10.079Z,14.87
2022-08-28T10:03:44.040Z,13.70
2022-08-28T10:06:16.733Z,14.60
2022-08-28T10:09:00.065Z,12.53
2022-08-28T10:11:34.290Z,13.53
2022-08-28T10:14:08.325Z,11.23
2022-08-28T10:16:42.106Z,11.73
2022-08-28T10:19:17.638Z,9.40
2022-08-28T10:21:47.914Z,10.10
2022-08-28T10:24:28.794Z,9.60
2022-08-28T10:27:02.097Z,8.30
2022-08-28T10:29:38.174Z,9.30
2022-08-28T10:32:16.389Z,11.27
2022-08-28T10:34:55.537Z,9.70
2022-08-28T10:37:31.306Z,10.07
2022-08-28T10:40:04.600Z,9.07
2022-08-28T10:42:36.011Z,10.63
2022-08-28T10:45:08.736Z,8.10
2022-08-28T10:47:39.385Z,8.00
2022-08-28T10:50:11.203Z,11.13
2022-08-28T10:52:41.702Z,8.80
2022-08-28T10:55:14.329Z,8.30
2022-08-28T10:57:43.932Z,9.13
2022-08-28T11:00:14.751Z,8.43
2022-08-28T11:02:47.367Z,8.17
2022-08-28T11:05:15.678Z,6.47
2022-08-28T11:07:48.478Z,6.17
2022-08-28T11:10:21.732Z,7.40
2022-08-28T11:12:51.426Z,7.40
2022-08-28T11:15:42.327Z,7.37
2022-08-28T11:18:49.763Z,8.10
2022-08-28T11:21:26.457Z,8.50
2022-08-28T11:24:01.328Z,7.50
2022-08-28T11:26:36.949Z,7.30
2022-08-28T11:29:05.235Z,8.47
2022-08-28T11:31:39.520Z,7.90
2022-08-28T11:34:07.804Z,8.10
2022-08-28T11:36:59.886Z,8.63
2022-08-28T11:39:27.939Z,8.67
2022-08-28T11:42:35.303Z,8.57
2022-08-28T11:45:03.253Z,8.83
2022-08-28T11:47:44.088Z,6.83
2022-08-28T11:50:31.715Z,6.20
2022-08-28T11:53:31.656Z,6.40
2022-08-28T11:56:35.063Z,5.57
2022-08-28T11:59:19.792Z,5.37
2022-08-28T12:01:49.824Z,5.80
2022-08-28T12:04:20.161Z,5.40
2022-08-28T12:06:53.306Z,5.27
2022-08-28T12:09:40.738Z,6.10
2022-08-28T12:12:12.783Z,5.27
2022-08-28T12:15:12.640Z,7.30
2022-08-28T12:17:43.975Z,4.63
2022-08-28T12:20:14.501Z,4.63
2022-08-28T12:22:49.953Z,2.70
2022-08-28T12:25:26.456Z,3.67
2022-08-28T12:27:55.376Z,4.00
2022-08-28T12:30:34.599Z,2.93
2022-08-28T12:33:09.880Z,3.67
2022-08-28T12:35:38.020Z,3.77
2022-08-28T12:38:09.369Z,3.03
2022-08-28T12:40:50.764Z,3.67
2022-08-28T12:43:29.565Z,4.00
2022-08-28T12:46:01.091Z,4.20
2022-08-28T12:48:31.581Z,4.50
2022-08-28T12:51:03.429Z,4.23
2022-08-28T12:53:39.633Z,4.00
2022-08-28T12:56:10.133Z,4.90
2022-08-28T12:58:40.513Z,4.67
2022-08-28T13:01:12.354Z,4.40
2022-08-28T13:03:45.920Z,4.73
2022-08-28T13:06:14.241Z,5.00
2022-08-28T13:08:42.445Z,5.27
2022-08-28T13:11:11.021Z,5.70
2022-08-28T13:13:47.756Z,5.50
2022-08-28T13:16:35.910Z,5.60
2022-08-28T13:19:28.777Z,5.30
2022-08-28T13:22:00.716Z,4.87
2022-08-28T13:24:52.548Z,4.60
2022-08-28T13:27:25.583Z,5.73
2022-08-28T13:30:07.023Z,5.53
2022-08-28T13:32:40.167Z,5.37
2022-08-28T13:35:13.599Z,5.63
2022-08-28T13:37:44.724Z,5.30
2022-08-28T13:40:36.869Z,5.47
2022-08-28T13:43:06.956Z,5.67
2022-08-28T13:45:42.931Z,5.40
2022-08-28T13:48:14.043Z,6.63
2022-08-28T13:50:46.449Z,5.77
2022-08-28T13:53:15.381Z,4.60
2022-08-28T13:55:43.305Z,6.77
2022-08-28T13:58:11.368Z,7.23
2022-08-28T14:00:43.398Z,7.57
2022-08-28T14:03:30.534Z,8.60
2022-08-28T14:05:58.496Z,6.73
2022-08-28T14:08:26.574Z,7.50
2022-08-28T14:10:54.481Z,7.60
2022-08-28T14:13:23.288Z,6.50
2022-08-28T14:15:51.257Z,8.90
2022-08-28T14:18:20.868Z,7.53
2022-08-28T14:20:48.881Z,8.47
2022-08-28T14:23:17.726Z,8.90
2022-08-28T14:25:47.539Z,9.40
2022-08-28T14:28:16.332Z,11.60
2022-08-28T14:30:44.609Z,10.40
2022-08-28T14:33:15.061Z,6.80
2022-08-28T14:35:44.633Z,8.43
2022-08-28T14:38:12.886Z,6.53
2022-08-28T14:40:42.813Z,5.60
2022-08-28T14:43:12.002Z,6.67
2022-08-28T14:45:43.829Z,8.43
2022-08-28T14:48:11.868Z,5.80
2022-08-28T14:50:41.985Z,6.33
2022-08-28T14:53:11.607Z,6.63
2022-08-28T14:55:41.572Z,6.90
2022-08-28T14:58:09.577Z,6.63
2022-08-28T15:00:42.283Z,8.17
2022-08-28T15:03:10.733Z,7.07
2022-08-28T15:05:38.730Z,6.93
2022-08-28T15:08:08.428Z,5.93
2022-08-28T15:10:38.657Z,5.57
2022-08-28T15:13:11.705Z,5.67
2022-08-28T15:15:41.324Z,5.60
2022-08-28T15:18:11.330Z,5.77
2022-08-28T15:20:40.524Z,9.10
2022-08-28T15:23:09.056Z,6.27
2022-08-28T15:25:38.453Z,5.90
2022-08-28T15:28:07.020Z,7.03
2022-08-28T15:30:35.568Z,7.20
2022-08-28T15:33:03.849Z,13.63
2022-08-28T15:35:33.692Z,12.13
2022-08-28T15:38:01.732Z,8.77
2022-08-28T15:40:47.065Z,6.70
2022-08-28T15:43:16.478Z,6.00
2022-08-28T15:45:44.880Z,7.97
2022-08-28T15:48:13.393Z,6.60
2022-08-28T15:50:42.641Z,5.07
2022-08-28T15:53:10.920Z,6.53
2022-08-28T15:55:38.868Z,6.33
2022-08-28T15:58:07.475Z,5.73
2022-08-28T16:00:43.684Z,7.63
2022-08-28T16:03:11.835Z,6.60
2022-08-28T16:05:40.993Z,5.30
2022-08-28T16:08:10.368Z,8.40
2022-08-28T16:10:38.407Z,5.53
2022-08-28T16:13:06.844Z,6.03
2022-08-28T16:15:35.090Z,5.87
2022-08-28T16:18:08.827Z,8.17
2022-08-28T16:20:37.131Z,6.73
2022-08-28T16:23:05.129Z,6.27
2022-08-28T16:25:33.095Z,5.60
2022-08-28T16:28:01.049Z,5.83
2022-08-28T16:30:29.108Z,5.63
2022-08-28T16:32:57.176Z,8.17
2022-08-28T16:35:26.805Z,7.67
2022-08-28T16:37:54.936Z,13.33
2022-08-28T16:40:23.437Z,11.53
2022-08-28T16:42:52.251Z,20.37
2022-08-28T16:45:20.526Z,7.60
2022-08-28T16:47:49.088Z,7.80
2022-08-28T16:50:17.763Z,12.70
2022-08-28T16:52:47.682Z,9.70
2022-08-28T16:55:16.165Z,11.70
2022-08-28T16:57:45.005Z,6.83
2022-08-28T17:00:14.294Z,6.90
2022-08-28T17:02:43.479Z,6.93
2022-08-28T17:05:12.141Z,12.00
2022-08-28T17:07:40.961Z,6.57
2022-08-28T17:10:13.485Z,6.90
2022-08-28T17:12:41.903Z,7.30
2022-08-28T17:15:11.462Z,6.93
2022-08-28T17:17:39.704Z,7.30
2022-08-28T17:20:28.903Z,8.07
2022-08-28T17:22:55.886Z,7.33
2022-08-28T17:25:26.173Z,8.87
2022-08-28T17:27:54.220Z,8.87
2022-08-28T17:30:22.616Z,9.30
2022-08-28T17:32:51.720Z,9.37
2022-08-28T17:35:19.959Z,9.37
2022-08-28T17:37:48.083Z,8.67
2022-08-28T17:40:18.384Z,8.93
2022-08-28T17:42:48.837Z,8.30
2022-08-28T17:45:17.717Z,8.40
2022-08-28T17:47:45.698Z,7.83
2022-08-28T17:50:13.665Z,11.70
2022-08-28T17:52:41.620Z,10.20
2022-08-28T17:55:09.985Z,9.57
2022-08-28T17:57:38.068Z,9.37
2022-08-28T18:00:12.121Z,10.03
2022-08-28T18:02:40.376Z,9.50
2022-08-28T18:05:09.591Z,9.73
2022-08-28T18:07:37.913Z,8.93
2022-08-28T18:10:07.329Z,9.93
2022-08-28T18:12:35.930Z,9.10
2022-08-28T18:15:04.576Z,9.67
2022-08-28T18:17:33.976Z,10.40
2022-08-28T18:20:01.924Z,10.37
2022-08-28T18:22:30.067Z,10.53
2022-08-28T18:24:58.657Z,11.60
2022-08-28T18:27:28.659Z,10.07
2022-08-28T18:29:56.956Z,8.60
2022-08-28T18:32:25.573Z,10.17
2022-08-28T18:34:54.888Z,10.90
2022-08-28T18:37:22.861Z,8.50
2022-08-28T18:39:51.581Z,10.07
2022-08-28T18:42:19.732Z,10.30
2022-08-28T18:44:47.721Z,10.20
2022-08-28T18:47:15.676Z,10.67
2022-08-28T18:49:43.633Z,12.70
2022-08-28T18:52:12.999Z,11.90
2022-08-28T18:54:41.101Z,14.23
2022-08-28T18:57:10.608Z,14.97
2022-08-28T18:59:40.016Z,12.90
2022-08-28T19:02:08.769Z,11.57
2022-08-28T19:04:37.880Z,9.93
2022-08-28T19:07:06.143Z,10.83
2022-08-28T19:09:35.500Z,11.03
2022-08-28T19:12:04.025Z,10.40
2022-08-28T19:14:32.034Z,11.27
2022-08-28T19:17:00.413Z,10.47
2022-08-28T19:19:28.731Z,9.87
2022-08-28T19:21:57.168Z,9.53
2022-08-28T19:24:26.580Z,10.87
2022-08-28T19:26:55.907Z,11.93
2022-08-28T19:29:23.858Z,10.70
2022-08-28T19:31:52.447Z,13.60
2022-08-28T19:34:20.594Z,11.53
2022-08-28T19:36:48.598Z,11.27
2022-08-28T19:39:16.595Z,10.70
2022-08-28T19:41:44.868Z,11.57
2022-08-28T19:44:14.940Z,11.00
2022-08-28T19:46:42.993Z,11.27
2022-08-28T19:49:10.979Z,11.40
2022-08-28T19:51:39.968Z,11.30
2022-08-28T19:54:11.065Z,11.77
2022-08-28T19:56:39.984Z,11.43
2022-08-28T19:59:08.895Z,11.87
2022-08-28T20:01:40.861Z,12.30
2022-08-28T20:04:13.391Z,11.50
2022-08-28T20:06:41.480Z,12.73
2022-08-28T20:09:12.674Z,15.60
2022-08-28T20:11:42.280Z,11.73
2022-08-28T20:14:10.267Z,12.73
2022-08-28T20:16:44.517Z,14.00
2022-08-28T20:19:13.093Z,12.57
2022-08-28T20:21:43.732Z,11.97
2022-08-28T20:24:13.465Z,13.60
2022-08-28T20:26:41.840Z,14.27
2022-08-28T20:29:10.668Z,19.17
2022-08-28T20:31:41.063Z,13.20
2022-08-28T20:34:09.348Z,14.67
2022-08-28T20:36:37.341Z,13.23
2022-08-28T20:39:07.220Z,17.43
2022-08-28T20:41:35.734Z,13.57
2022-08-28T20:44:06.279Z,13.67
2022-08-28T20:46:40.448Z,13.30
2022-08-28T20:49:11.037Z,15.03
2022-08-28T20:51:56.395Z,14.90
2022-08-28T20:54:27.609Z,12.77
2022-08-28T20:56:55.959Z,14.10
2022-08-28T20:59:28.780Z,14.10
2022-08-28T21:02:05.932Z,13.63
2022-08-28T21:04:37.531Z,13.70
2022-08-28T21:07:07.251Z,14.10
2022-08-28T21:09:57.179Z,13.20
2022-08-28T21:12:24.665Z,14.67
2022-08-28T21:14:53.401Z,13.33
2022-08-28T21:17:29.423Z,13.40
2022-08-28T21:20:01.185Z,13.80
2022-08-28T21:22:31.656Z,14.00
2022-08-28T21:24:59.996Z,11.90
2022-08-28T21:27:28.125Z,13.97
2022-08-28T21:29:58.082Z,14.90
2022-08-28T21:32:26.271Z,13.60
2022-08-28T21:34:55.331Z,12.87
2022-08-28T21:37:24.771Z,13.17
2022-08-28T21:39:53.945Z,15.30
2022-08-28T21:42:24.716Z,14.17
2022-08-28T21:44:54.027Z,12.40
2022-08-28T21:47:23.116Z,14.73
2022-08-28T21:49:51.890Z,13.90
2022-08-28T21:52:21.014Z,16.10
2022-08-28T21:54:50.754Z,12.70
2022-08-28T21:57:18.782Z,18.13
2022-08-28T21:59:46.801Z,15.67
2022-08-28T22:02:14.774Z,12.97
2022-08-28T22:04:42.819Z,17.00
2022-08-28T22:07:11.996Z,16.13
2022-08-28T22:09:40.122Z,14.27
2022-08-28T22:12:10.118Z,14.07
2022-08-28T22:14:38.622Z,13.23
2022-08-28T22:17:11.537Z,14.77
2022-08-28T22:19:40.352Z,15.07
2022-08-28T22:22:26.061Z,13.53
2022-08-28T22:24:54.071Z,15.20
2022-08-28T22:27:23.761Z,15.40
2022-08-28T22:29:51.918Z,15.37
2022-08-28T22:32:25.413Z,13.47
2022-08-28T22:34:54.110Z,13.03
2022-08-28T22:37:22.994Z,14.80
2022-08-28T22:39:51.049Z,15.00
2022-08-28T22:42:19.073Z,15.50
2022-08-28T22:44:48.992Z,15.90
2022-08-28T22:47:19.036Z,15.67
2022-08-28T22:49:47.169Z,13.97
2022-08-28T22:52:15.395Z,14.03
2022-08-28T22:54:43.603Z,16.20
2022-08-28T22:57:11.772Z,16.10
2022-08-28T22:59:39.749Z,15.63
2022-08-28T23:02:09.277Z,16.37
2022-08-28T23:04:37.300Z,17.93
2022-08-28T23:07:05.469Z,14.70
2022-08-28T23:09:35.963Z,15.70
2022-08-28T23:12:05.370Z,17.47
2022-08-28T23:14:33.462Z,18.77
2022-08-28T23:17:01.552Z,17.30
2022-08-28T23:19:30.929Z,17.00
2022-08-28T23:21:59.765Z,19.00
2022-08-28T23:24:27.915Z,20.27
2022-08-28T23:26:55.954Z,22.20
2022-08-28T23:29:23.992Z,16.87
2022-08-28T23:31:52.098Z,17.87
2022-08-28T23:34:20.114Z,17.83
2022-08-28T23:36:49.485Z,21.53
2022-08-28T23:39:17.616Z,17.90
2022-08-28T23:41:45.569Z,17.80
2022-08-28T23:44:14.648Z,18.10
2022-08-28T23:46:42.622Z,18.63
2022-08-28T23:49:11.585Z,18.97
2022-08-28T23:51:39.581Z,17.50
2022-08-28T23:54:10.211Z,20.03
2022-08-28T23:56:38.945Z,18.40
2022-08-28T23:59:07.408Z,18.23
